Eastern Passage, Canada
Current Conditions -  °F | °C
As of 7:00 AM on Friday 24 Oct 2014 (Local Time) from CYHZ Reporting Station
Overcast Overcast  
Wind Chill: 52°   Ceiling: 400
Heat Index: 52°   Visibility: 10mi
Dew Point: 52°   Wind: 9mph
Humidity: 100%   Direction: 40°NE
Pressure: 29.59"   Gusts: NA
Location:  44.62°N, 63.48°W
Report Text: CYHZ 241000Z 04008KT 10SM OVC004 11/11 A2959 RMK SF8 SLP023 DENSITY ALT 500FT
Loading
Personal Weather Stations






























Interactive Weather Map
Tropical Storm Tracking
New forecast layout! Learn more

10-Day Weather Forecast

Advertisements
Track Severe Weather on mobile